Caceres, Brazil
Current Conditions -  °F | °C
As of 5:00 PM on Wednesday 26 Nov 2014 (Local Time) from SBCY Reporting Station
Broken Clouds Broken Clouds  
Wind Chill: 88°   Ceiling: 10000
Heat Index: 94°   Visibility: 6mi
Dew Point: 72°   Wind: 6mph
Humidity: 58%   Direction: 30°NNE
Pressure: 29.74"   Gusts: NA
Location:  16.05°S, 57.51°W
Report Text: SBCY 262000Z 03005KT 9999 SCT017 BKN100 31/22 Q1007
Loading
Personal Weather Stations






























Interactive Weather Map New forecast layout! Learn more

10-Day Weather Forecast

Advertisements
Track Severe Weather on mobile